TimeEST,TemperatureF,Dew PointF,Humidity,Sea Level PressureIn,VisibilityMPH,Wind Direction,Wind SpeedMPH,Gust SpeedMPH,PrecipitationIn,Events,Conditions,WindDirDegrees,DateUTC
12:53 AM,57.9,42.1,56,30.13,10.0,SSE,10.4,-,N/A,,Mostly Cloudy,160,2013-11-06 05:53:00
1:53 AM,61.0,44.1,54,30.11,10.0,South,16.1,21.9,N/A,,Overcast,190,2013-11-06 06:53:00
2:53 AM,61.0,45.0,56,30.11,10.0,SSW,11.5,-,N/A,,Overcast,200,2013-11-06 07:53:00
3:53 AM,61.0,46.0,58,30.09,10.0,South,11.5,21.9,N/A,,Overcast,190,2013-11-06 08:53:00
4:53 AM,61.0,44.1,54,30.06,10.0,South,15.0,21.9,N/A,,Mostly Cloudy,190,2013-11-06 09:53:00
5:53 AM,61.0,43.0,52,30.06,10.0,SSW,11.5,21.9,N/A,,Clear,200,2013-11-06 10:53:00
6:53 AM,61.0,42.1,50,30.04,10.0,South,15.0,23.0,N/A,,Overcast,190,2013-11-06 11:53:00
7:53 AM,60.1,41.0,49,30.05,10.0,SSW,16.1,23.0,N/A,,Overcast,200,2013-11-06 12:53:00
8:53 AM,55.9,46.9,72,30.04,10.0,SSW,11.5,-,0.02,Rain,Light Rain,200,2013-11-06 13:53:00
9:53 AM,55.9,50.0,80,30.04,6.0,SSW,11.5,-,0.05,Rain,Rain,200,2013-11-06 14:53:00
10:53 AM,55.9,52.0,87,30.03,6.0,South,15.0,21.9,0.07,Rain,Light Rain,190,2013-11-06 15:53:00
11:53 AM,55.9,53.1,90,30.03,3.0,SSW,12.7,21.9,0.10,Rain,Light Rain,210,2013-11-06 16:53:00
12:01 PM,55.9,53.1,90,30.03,2.0,SSW,15.0,24.2,0.02,Rain,Light Rain,210,2013-11-06 17:01:00
12:20 PM,55.9,54.0,93,30.03,3.0,SSW,16.1,21.9,0.04,Rain,Light Rain,210,2013-11-06 17:20:00
12:32 PM,55.9,53.1,90,30.02,4.0,SSW,13.8,26.5,0.04,Rain,Light Rain,200,2013-11-06 17:32:00
12:53 PM,55.9,53.1,90,30.01,5.0,SW,13.8,21.9,0.05,Rain,Light Rain,220,2013-11-06 17:53:00
1:53 PM,57.0,54.0,89,29.99,10.0,SSW,16.1,26.5,0.02,,Overcast,210,2013-11-06 18:53:00
2:18 PM,57.0,54.0,89,30.00,10.0,SW,9.2,25.3,0.00,Rain,Light Rain,230,2013-11-06 19:18:00
2:53 PM,57.0,54.0,89,29.99,10.0,SW,12.7,-,0.01,,Overcast,230,2013-11-06 19:53:00
3:53 PM,57.0,54.0,89,29.99,6.0,WSW,11.5,19.6,0.00,Rain,Light Rain,240,2013-11-06 20:53:00
4:53 PM,55.9,54.0,93,30.00,4.0,WSW,10.4,-,0.00,Rain,Light Rain,250,2013-11-06 21:53:00
5:53 PM,55.9,53.1,90,30.01,10.0,WSW,6.9,-,0.03,Rain,Light Rain,250,2013-11-06 22:53:00
6:53 PM,46.9,44.1,90,30.06,10.0,NW,12.7,20.7,0.05,Rain,Light Rain,310,2013-11-06 23:53:00
7:25 PM,45.0,42.1,90,30.09,10.0,Variable,6.9,17.3,0.02,Rain,Light Rain,0,2013-11-07 00:25:00
7:51 PM,44.6,42.8,93,30.09,5.0,WNW,8.1,-,0.07,Rain,Rain,300,2013-11-07 00:51:00
7:53 PM,44.1,42.1,93,30.10,5.0,WNW,11.5,18.4,0.07,Rain,Light Rain,300,2013-11-07 00:53:00
8:53 PM,43.0,39.9,89,30.12,10.0,NW,9.2,18.4,0.05,Rain,Light Rain,310,2013-11-07 01:53:00
9:09 PM,43.0,39.9,89,30.08,10.0,NW,8.1,18.4,0.01,Rain,Light Rain,310,2013-11-07 02:09:00
9:19 PM,43.0,39.9,89,30.10,10.0,NW,8.1,-,0.02,Rain,Light Rain,310,2013-11-07 02:19:00
9:33 PM,43.0,39.9,89,30.12,10.0,NW,10.4,18.4,0.02,Rain,Light Rain,310,2013-11-07 02:33:00
9:53 PM,43.0,39.0,86,30.12,10.0,NW,8.1,-,0.02,,Overcast,320,2013-11-07 02:53:00
10:05 PM,42.1,39.0,89,30.13,10.0,NW,5.8,-,0.00,Rain,Light Rain,310,2013-11-07 03:05:00
10:33 PM,42.1,37.9,85,30.12,10.0,NNW,6.9,-,0.00,Rain,Light Rain,340,2013-11-07 03:33:00
10:48 PM,42.8,37.4,81,30.13,10.0,NNW,6.9,-,0.00,,Overcast,330,2013-11-07 03:48:00
10:53 PM,42.1,37.9,85,30.14,10.0,NW,6.9,-,0.00,,Overcast,320,2013-11-07 03:53:00
11:49 PM,41.0,37.4,87,30.14,10.0,WNW,4.6,-,N/A,,Scattered Clouds,300,2013-11-07 04:49:00
11:53 PM,41.0,37.9,89,30.14,10.0,NW,5.8,-,N/A,,Scattered Clouds,310,2013-11-07 04:53:00